Time;durP1;ratioP1;P1;durP2;ratioP2;P2;SDS_P1;SDS_P2;PMS_P1;PMS_P2;Temp;Humidity;BMP_temperature;BMP_pressure;BME280_temperature;BME280_humidity;BME280_pressure;Samples;Min_cycle;Max_cycle;Signal;HPM_P1;HPM_P2
2023/10/09 00:00:50;;;;;;;10.52;2.67;;;12.60;99.90;;;;;;5026977;28;20126;-84
2023/10/09 00:03:18;;;;;;;7.00;2.53;;;12.60;99.90;;;;;;5025723;28;20025;-85
2023/10/09 00:05:46;;;;;;;7.93;2.83;;;12.60;99.90;;;;;;5043823;28;20021;-82
2023/10/09 00:08:21;;;;;;;8.18;2.45;;;12.50;99.90;;;;;;5026332;28;20036;-84
2023/10/09 00:10:57;;;;;;;9.98;3.10;;;12.60;99.90;;;;;;5025535;28;20021;-84
2023/10/09 00:13:30;;;;;;;13.90;3.10;;;12.60;99.90;;;;;;5026454;28;20018;-82
2023/10/09 00:16:14;;;;;;;10.73;2.95;;;12.60;99.90;;;;;;5025636;28;20359;-81
2023/10/09 00:18:46;;;;;;;7.30;2.80;;;12.60;99.90;;;;;;5025707;28;20049;-81
2023/10/09 00:21:24;;;;;;;13.50;3.08;;;12.50;99.90;;;;;;5024150;28;20034;-79
2023/10/09 00:23:54;;;;;;;5.13;2.45;;;12.50;99.90;;;;;;5042011;28;20132;-78
2023/10/09 00:26:20;;;;;;;12.70;3.10;;;12.60;99.90;;;;;;5024355;28;20030;-77
2023/10/09 00:28:47;;;;;;;8.88;3.10;;;12.50;99.90;;;;;;5024727;28;20178;-78
2023/10/09 00:31:15;;;;;;;9.32;2.78;;;12.50;99.90;;;;;;5024680;28;20017;-78
2023/10/09 00:33:44;;;;;;;9.15;2.88;;;12.50;99.90;;;;;;5026247;28;20037;-77
2023/10/09 00:36:14;;;;;;;9.55;3.08;;;12.50;99.90;;;;;;5023657;28;20037;-76
2023/10/09 00:38:44;;;;;;;8.43;3.28;;;12.50;99.90;;;;;;5024405;28;20035;-76
2023/10/09 00:41:13;;;;;;;10.63;3.15;;;12.40;99.90;;;;;;5024613;28;20110;-76
2023/10/09 00:43:42;;;;;;;12.35;3.28;;;12.40;99.90;;;;;;5042244;28;20017;-76
2023/10/09 00:46:23;;;;;;;12.43;3.33;;;12.40;99.90;;;;;;5024441;28;20093;-76
2023/10/09 00:49:00;;;;;;;9.68;3.28;;;12.40;99.90;;;;;;5041272;28;20057;-75
2023/10/09 00:51:26;;;;;;;12.73;3.50;;;12.40;99.90;;;;;;5040708;28;20033;-76
2023/10/09 00:53:58;;;;;;;11.93;3.10;;;12.40;99.90;;;;;;5023881;28;20489;-75
2023/10/09 00:59:09;;;;;;;12.40;3.45;;;12.40;99.90;;;;;;5041878;28;20018;-76
2023/10/09 01:01:50;;;;;;;10.85;3.25;;;12.40;99.90;;;;;;5041441;28;20025;-76
2023/10/09 01:04:19;;;;;;;;;;;12.40;99.90;;;;;;5024383;28;20064;-77
2023/10/09 01:07:05;;;;;;;12.80;3.80;;;12.40;99.90;;;;;;5021460;28;19905;-77
2023/10/09 01:09:37;;;;;;;9.60;3.38;;;12.40;99.90;;;;;;5021010;28;20032;-77
2023/10/09 01:12:03;;;;;;;7.57;2.95;;;12.40;99.90;;;;;;5021925;28;20037;-76
2023/10/09 01:14:38;;;;;;;12.82;3.38;;;12.40;99.90;;;;;;5041220;28;20512;-75
2023/10/09 01:17:29;;;;;;;11.73;3.88;;;12.30;99.90;;;;;;5041256;28;20094;-77
2023/10/09 01:19:55;;;;;;;7.57;3.30;;;12.30;99.90;;;;;;5041910;28;20022;-76
2023/10/09 01:22:21;;;;;;;11.80;3.92;;;12.20;99.90;;;;;;5023409;28;20118;-76
2023/10/09 01:24:50;;;;;;;8.15;3.80;;;12.20;99.90;;;;;;5041414;28;20022;-76
2023/10/09 01:27:15;;;;;;;12.98;3.88;;;12.20;99.90;;;;;;5040535;28;20057;-76
2023/10/09 01:29:42;;;;;;;11.02;3.63;;;12.20;99.90;;;;;;5024697;28;20021;-76
2023/10/09 01:32:16;;;;;;;5.93;3.67;;;12.20;99.90;;;;;;5041677;28;20061;-77
2023/10/09 01:34:44;;;;;;;10.70;3.90;;;12.20;99.90;;;;;;5023293;28;20093;-78
2023/10/09 01:37:18;;;;;;;11.63;3.88;;;12.20;99.90;;;;;;5023502;28;20045;-76
2023/10/09 01:39:54;;;;;;;12.25;4.32;;;12.20;99.90;;;;;;5040443;28;20034;-77
2023/10/09 01:43:03;;;;;;;9.90;3.67;;;12.10;99.90;;;;;;5023274;28;20037;-76
2023/10/09 01:47:57;;;;;;;10.40;4.25;;;12.20;99.90;;;;;;5039882;28;20042;-77
2023/10/09 01:50:34;;;;;;;11.98;4.25;;;12.10;99.90;;;;;;5039398;28;20021;-75
2023/10/09 01:53:05;;;;;;;10.48;3.85;;;12.10;99.90;;;;;;5039662;28;20094;-76
2023/10/09 01:55:39;;;;;;;14.18;4.13;;;12.10;99.90;;;;;;5041477;28;20033;-75
2023/10/09 01:58:07;;;;;;;9.93;4.15;;;12.10;99.90;;;;;;5039696;28;20052;-76
2023/10/09 02:00:40;;;;;;;14.05;4.57;;;12.20;99.90;;;;;;5022217;28;20041;-76
2023/10/09 02:03:13;;;;;;;12.00;4.30;;;12.10;99.90;;;;;;5022602;28;20048;-76
2023/10/09 02:05:39;;;;;;;12.10;4.32;;;12.10;99.90;;;;;;5039973;28;20072;-76
2023/10/09 02:08:05;;;;;;;10.27;4.50;;;12.10;99.90;;;;;;5022857;28;20032;-77
2023/10/09 02:10:32;;;;;;;13.45;4.10;;;12.20;99.90;;;;;;5040915;28;20045;-75
2023/10/09 02:13:10;;;;;;;13.70;4.60;;;12.10;99.90;;;;;;5023076;28;20025;-77
2023/10/09 02:18:36;;;;;;;12.13;4.22;;;12.20;99.90;;;;;;5041253;28;20394;-76
2023/10/09 02:23:46;;;;;;;13.55;4.60;;;12.10;99.90;;;;;;5041297;28;20048;-76
2023/10/09 02:26:25;;;;;;;9.30;4.47;;;12.10;99.90;;;;;;5023460;28;20051;-76
2023/10/09 02:31:40;;;;;;;14.77;4.32;;;12.20;99.90;;;;;;5040261;28;20029;-77
2023/10/09 02:34:11;;;;;;;10.93;4.45;;;12.20;99.90;;;;;;5023002;28;20521;-75
2023/10/09 02:36:41;;;;;;;13.30;4.60;;;12.10;99.90;;;;;;5040549;28;20033;-76
2023/10/09 02:39:21;;;;;;;21.23;4.90;;;12.20;99.90;;;;;;5040727;28;20485;-76
2023/10/09 02:41:50;;;;;;;12.23;4.88;;;12.20;99.90;;;;;;5040591;28;20045;-77
2023/10/09 02:44:17;;;;;;;10.93;4.75;;;12.20;99.90;;;;;;5040286;28;20049;-77
2023/10/09 02:46:44;;;;;;;15.68;4.97;;;12.20;99.90;;;;;;5044567;28;20025;-77
2023/10/09 02:49:15;;;;;;;12.23;4.50;;;12.20;99.90;;;;;;5026498;28;20116;-76
2023/10/09 02:51:42;;;;;;;14.45;5.00;;;12.20;99.90;;;;;;5027211;28;20125;-76
2023/10/09 02:54:18;;;;;;;10.10;4.97;;;12.20;99.90;;;;;;5026720;28;20034;-77
2023/10/09 02:56:55;;;;;;;10.35;4.47;;;12.20;99.90;;;;;;5025887;28;20059;-78
2023/10/09 02:59:24;;;;;;;13.50;5.13;;;12.20;99.90;;;;;;5044044;28;20096;-76
2023/10/09 03:01:52;;;;;;;8.85;5.10;;;12.30;99.90;;;;;;5043637;28;20036;-76
2023/10/09 03:04:19;;;;;;;11.77;5.40;;;12.30;99.90;;;;;;5026401;28;20109;-76
2023/10/09 03:06:51;;;;;;;12.68;5.30;;;12.30;99.90;;;;;;5026579;28;20044;-76
2023/10/09 03:09:18;;;;;;;11.52;5.50;;;12.30;99.90;;;;;;5043605;28;20048;-76
2023/10/09 03:11:53;;;;;;;12.43;5.97;;;12.30;99.90;;;;;;5026495;28;20032;-76
2023/10/09 03:14:20;;;;;;;16.35;5.50;;;12.30;99.90;;;;;;5044056;28;20021;-76
2023/10/09 03:16:48;;;;;;;10.23;5.28;;;12.30;99.90;;;;;;5043381;28;20084;-75
2023/10/09 03:19:14;;;;;;;13.82;6.03;;;12.30;99.90;;;;;;5025860;28;20128;-74
2023/10/09 03:21:40;;;;;;;13.38;5.32;;;12.30;99.90;;;;;;5044538;28;20029;-75
2023/10/09 03:24:08;;;;;;;12.68;5.50;;;12.30;99.90;;;;;;5026091;28;20116;-76
2023/10/09 03:26:34;;;;;;;7.35;4.57;;;12.30;99.90;;;;;;5025745;28;20414;-75
2023/10/09 03:29:06;;;;;;;13.50;5.18;;;12.30;99.90;;;;;;5023742;28;20014;-75
2023/10/09 03:31:38;;;;;;;12.30;5.10;;;12.30;99.90;;;;;;5025690;28;20607;-75
2023/10/09 03:34:06;;;;;;;13.40;5.70;;;12.30;99.90;;;;;;5026242;28;20091;-75
2023/10/09 03:36:38;;;;;;;13.50;5.03;;;12.40;99.90;;;;;;5024589;28;20049;-79
2023/10/09 03:39:18;;;;;;;12.07;5.03;;;12.40;99.90;;;;;;5025809;28;20036;-77
2023/10/09 03:41:47;;;;;;;12.27;5.53;;;12.30;99.90;;;;;;5026366;28;20112;-76
2023/10/09 03:44:14;;;;;;;13.82;5.93;;;12.30;99.90;;;;;;5043321;28;20033;-78
2023/10/09 03:46:44;;;;;;;13.38;5.97;;;12.30;99.90;;;;;;5024819;28;20029;-79
2023/10/09 03:49:11;;;;;;;12.70;6.03;;;12.30;99.90;;;;;;5025646;28;20643;-78
2023/10/09 03:51:37;;;;;;;12.02;5.72;;;12.30;99.90;;;;;;5043078;28;20075;-78
2023/10/09 03:54:09;;;;;;;12.40;5.45;;;12.30;99.90;;;;;;5043703;28;20029;-78
2023/10/09 03:56:35;;;;;;;13.82;5.70;;;12.30;99.90;;;;;;5043873;28;20044;-78
2023/10/09 03:59:04;;;;;;;12.55;6.10;;;12.30;99.90;;;;;;5025438;28;20033;-79
2023/10/09 04:01:37;;;;;;;12.70;5.93;;;12.30;99.90;;;;;;5043467;28;20018;-80
2023/10/09 04:04:10;;;;;;;13.05;6.13;;;12.30;99.90;;;;;;5025854;28;20030;-81
2023/10/09 04:06:37;;;;;;;13.77;6.30;;;12.30;99.90;;;;;;5024457;28;20104;-78
2023/10/09 04:11:57;;;;;;;14.30;6.72;;;12.30;99.90;;;;;;5043060;28;20116;-80
2023/10/09 04:14:32;;;;;;;15.45;6.57;;;12.30;99.90;;;;;;5043220;28;20024;-80
2023/10/09 04:17:32;;;;;;;16.13;6.90;;;12.20;99.90;;;;;;5023980;28;20136;-80
2023/10/09 04:22:59;;;;;;;21.40;7.65;;;12.30;99.90;;;;;;5043579;28;20043;-78
2023/10/09 04:25:42;;;;;;;17.02;7.75;;;12.20;99.90;;;;;;5042047;28;20064;-76
2023/10/09 04:28:09;;;;;;;15.55;7.18;;;12.20;99.90;;;;;;5024815;28;20385;-77
2023/10/09 04:30:40;;;;;;;18.85;7.70;;;12.20;99.90;;;;;;5042593;28;20057;-78
2023/10/09 04:33:11;;;;;;;18.92;8.57;;;12.20;99.90;;;;;;5042420;28;20102;-77
2023/10/09 04:35:37;;;;;;;22.10;8.82;;;12.10;99.90;;;;;;5042832;28;20033;-77
2023/10/09 04:38:05;;;;;;;21.10;9.55;;;12.20;99.90;;;;;;5024935;28;20120;-78
2023/10/09 04:40:51;;;;;;;24.20;8.98;;;12.20;99.90;;;;;;5042311;28;20025;-80
2023/10/09 04:43:20;;;;;;;24.33;8.75;;;12.20;99.90;;;;;;5023310;28;20025;-79
2023/10/09 04:46:06;;;;;;;30.25;10.68;;;12.20;99.90;;;;;;5024482;28;20470;-81
2023/10/09 04:48:38;;;;;;;22.42;10.00;;;12.20;99.90;;;;;;5032687;28;20053;-80
2023/10/09 04:56:51;;;;;;;47.67;11.63;;;12.10;99.90;;;;;;5041795;28;20117;-78
2023/10/09 04:59:24;;;;;;;31.77;10.73;;;12.10;99.90;;;;;;5024569;28;20076;-77
2023/10/09 05:01:57;;;;;;;36.95;12.73;;;12.10;99.90;;;;;;5043257;28;20029;-77
2023/10/09 05:04:39;;;;;;;40.25;13.10;;;12.10;99.90;;;;;;5025078;28;20030;-77
2023/10/09 05:09:56;;;;;;;44.65;13.43;;;12.00;99.90;;;;;;5042546;28;20064;-75
2023/10/09 05:12:26;;;;;;;45.03;13.30;;;12.10;99.90;;;;;;5024971;28;20458;-76
2023/10/09 05:15:08;;;;;;;35.28;12.75;;;12.00;99.90;;;;;;5040231;28;20066;-77
2023/10/09 05:17:35;;;;;;;50.10;13.82;;;12.10;99.90;;;;;;5024935;28;20046;-73
2023/10/09 05:22:57;;;;;;;66.13;16.67;;;12.10;99.90;;;;;;5042163;28;20087;-73
2023/10/09 05:28:48;;;;;;;57.90;17.17;;;12.10;99.90;;;;;;5042227;28;20094;-75
2023/10/09 05:31:08;;;;;;;75.57;18.05;;;12.10;99.90;;;;;;5041665;28;20057;-74
2023/10/09 05:33:38;;;;;;;65.82;18.95;;;12.10;99.90;;;;;;5042346;28;20022;-75
2023/10/09 05:36:14;;;;;;;72.22;19.35;;;12.10;99.90;;;;;;5042170;28;20132;-73
2023/10/09 05:38:46;;;;;;;95.78;21.23;;;12.10;99.90;;;;;;5020972;28;20049;-75
2023/10/09 05:41:45;;;;;;;93.03;21.38;;;12.10;99.90;;;;;;5042111;28;20030;-76
2023/10/09 05:49:46;;;;;;;116.85;25.20;;;12.10;99.90;;;;;;5040136;28;20087;-75
2023/10/09 05:53:00;;;;;;;111.60;26.83;;;12.10;99.90;;;;;;5041506;28;20415;-75
2023/10/09 06:09:09;;;;;;;136.32;32.00;;;12.20;99.90;;;;;;5041235;28;20418;-75
2023/10/09 06:14:04;;;;;;;167.63;32.47;;;12.30;99.90;;;;;;5041333;28;20093;-75
2023/10/09 06:16:43;;;;;;;162.18;31.45;;;12.30;99.90;;;;;;5040277;28;20052;-75
2023/10/09 06:24:23;;;;;;;178.82;36.30;;;12.40;99.90;;;;;;5041030;28;20498;-75
2023/10/09 06:29:36;;;;;;;257.40;39.85;;;12.40;99.90;;;;;;5040382;28;20033;-75
2023/10/09 06:34:46;;;;;;;240.15;41.35;;;12.40;99.90;;;;;;5039738;28;20037;-77
2023/10/09 06:42:43;;;;;;;304.40;46.38;;;12.60;99.90;;;;;;5040444;28;20032;-72
2023/10/09 06:47:53;;;;;;;233.50;44.50;;;12.60;99.90;;;;;;5036047;28;20069;-72
2023/10/09 06:52:57;;;;;;;232.85;45.35;;;12.70;99.90;;;;;;5039257;28;20025;-72
2023/10/09 06:55:36;;;;;;;275.48;47.00;;;12.70;99.90;;;;;;5037958;28;20030;-71
2023/10/09 06:58:09;;;;;;;228.32;44.85;;;12.70;99.90;;;;;;5039004;28;20033;-71
2023/10/09 07:00:54;;;;;;;244.52;45.17;;;12.80;99.90;;;;;;5037682;28;20508;-70
2023/10/09 07:03:29;;;;;;;;;;;12.80;99.90;;;;;;5037609;28;20033;-71
2023/10/09 07:06:23;;;;;;;228.82;45.13;;;12.80;99.90;;;;;;5041257;28;19916;-73
2023/10/09 07:17:21;;;;;;;230.20;49.75;;;12.90;99.90;;;;;;5038436;28;20053;-72
2023/10/09 07:24:57;;;;;;;291.52;55.42;;;13.00;99.90;;;;;;5039625;28;20037;-70
2023/10/09 07:27:51;;;;;;;299.10;57.10;;;13.00;99.90;;;;;;5038254;28;20428;-70
2023/10/09 07:35:46;;;;;;;297.05;59.75;;;13.10;99.90;;;;;;5040771;28;20048;-74
2023/10/09 07:38:20;;;;;;;279.35;57.20;;;13.10;99.90;;;;;;5041325;28;20041;-70
2023/10/09 07:43:39;;;;;;;333.38;64.40;;;13.20;99.90;;;;;;5042521;28;21460;-70
2023/10/09 07:48:53;;;;;;;310.98;59.28;;;13.30;99.90;;;;;;5038198;28;20041;-72
2023/10/09 07:52:05;;;;;;;293.38;62.05;;;13.30;99.90;;;;;;5044615;28;20025;-70
2023/10/09 07:54:14;;;;;;;341.55;64.72;;;13.30;99.90;;;;;;5034272;28;20041;-74
2023/10/09 07:56:45;;;;;;;305.95;63.50;;;13.40;99.90;;;;;;5041016;28;20026;-72
2023/10/09 07:59:17;;;;;;;326.00;64.85;;;13.40;99.90;;;;;;5042572;28;20087;-72
2023/10/09 08:01:52;;;;;;;350.55;66.35;;;13.40;99.90;;;;;;5023536;28;20033;-69
2023/10/09 08:04:48;;;;;;;295.60;61.97;;;13.40;99.90;;;;;;5041418;28;20026;-71
2023/10/09 08:07:34;;;;;;;296.65;61.60;;;13.40;99.90;;;;;;5043734;28;20056;-70
2023/10/09 08:15:20;;;;;;;302.00;62.03;;;13.60;99.90;;;;;;5041655;28;20481;-71
2023/10/09 08:18:27;;;;;;;250.00;59.08;;;13.60;99.90;;;;;;5042874;28;20052;-72
2023/10/09 08:23:48;;;;;;;269.23;60.22;;;13.60;99.90;;;;;;5042357;28;20029;-72
2023/10/09 08:26:14;;;;;;;245.73;56.22;;;13.70;99.90;;;;;;5041546;28;20017;-72
2023/10/09 08:28:45;;;;;;;231.98;56.67;;;13.80;99.90;;;;;;5042546;28;20044;-73
2023/10/09 08:31:19;;;;;;;282.75;60.72;;;13.80;99.90;;;;;;5024969;28;20398;-73
2023/10/09 08:33:58;;;;;;;297.38;59.63;;;13.80;99.90;;;;;;5033106;28;20041;-74
2023/10/09 08:36:28;;;;;;;265.70;57.75;;;13.90;99.90;;;;;;5040717;28;20125;-72
2023/10/09 08:38:58;;;;;;;243.90;57.22;;;13.90;99.90;;;;;;5026244;28;20036;-71
2023/10/09 08:41:30;;;;;;;272.00;57.33;;;13.90;99.90;;;;;;5024950;28;20034;-71
2023/10/09 08:43:56;;;;;;;272.38;58.42;;;14.00;99.90;;;;;;5032448;28;20040;-74
2023/10/09 08:46:26;;;;;;;253.48;58.15;;;14.00;99.90;;;;;;5040552;28;20463;-73
2023/10/09 08:48:58;;;;;;;254.95;56.28;;;14.00;99.90;;;;;;5042443;28;20049;-71
2023/10/09 08:51:26;;;;;;;275.90;58.97;;;14.10;99.90;;;;;;5042137;28;20067;-73
2023/10/09 08:53:52;;;;;;;258.10;57.45;;;14.10;99.90;;;;;;5024170;28;20052;-73
2023/10/09 08:56:22;;;;;;;376.67;64.85;;;14.10;99.90;;;;;;5042531;28;20036;-72
2023/10/09 08:58:49;;;;;;;238.88;57.28;;;14.10;99.90;;;;;;5041057;28;20029;-73
2023/10/09 09:01:21;;;;;;;261.77;58.65;;;14.20;99.90;;;;;;5025497;28;20021;-73
2023/10/09 09:03:47;;;;;;;257.98;58.13;;;14.20;99.90;;;;;;5042344;28;20022;-72
2023/10/09 09:06:14;;;;;;;245.77;54.85;;;14.20;99.90;;;;;;5042315;28;20037;-73
2023/10/09 09:08:40;;;;;;;236.10;56.60;;;14.30;99.90;;;;;;5042659;28;20036;-72
2023/10/09 09:11:40;;;;;;;252.43;57.47;;;14.30;99.90;;;;;;5042984;28;20030;-73
2023/10/09 09:14:07;;;;;;;256.08;57.33;;;14.30;99.90;;;;;;5042365;28;20569;-72
2023/10/09 09:16:36;;;;;;;268.52;58.03;;;14.40;99.90;;;;;;5042563;28;20052;-72
2023/10/09 09:21:39;;;;;;;401.02;64.35;;;14.40;99.90;;;;;;5042354;28;20073;-73
2023/10/09 09:24:16;;;;;;;301.67;59.72;;;14.40;99.90;;;;;;5033462;28;20429;-73
2023/10/09 09:26:45;;;;;;;261.48;58.30;;;14.40;99.90;;;;;;5042278;28;20022;-74
2023/10/09 09:29:12;;;;;;;234.98;54.40;;;14.40;99.90;;;;;;5042362;28;20040;-75
2023/10/09 09:31:51;;;;;;;226.52;53.83;;;14.50;99.90;;;;;;5041703;28;20541;-73
2023/10/09 09:34:17;;;;;;;245.57;56.30;;;14.50;99.90;;;;;;5041539;28;20025;-73
2023/10/09 09:36:54;;;;;;;225.70;54.35;;;14.50;99.90;;;;;;5024599;28;20091;-72
2023/10/09 09:39:29;;;;;;;197.65;48.72;;;14.50;99.90;;;;;;5023766;28;20036;-72
2023/10/09 09:42:07;;;;;;;212.27;51.20;;;14.50;99.90;;;;;;5041617;28;20104;-72
2023/10/09 09:44:44;;;;;;;238.20;52.60;;;14.50;99.90;;;;;;5042269;28;20033;-71
2023/10/09 09:47:23;;;;;;;216.10;51.88;;;14.60;99.90;;;;;;5039368;28;20057;-72
2023/10/09 09:50:22;;;;;;;200.57;51.22;;;14.50;99.90;;;;;;5040471;28;20029;-73
2023/10/09 09:52:49;;;;;;;215.13;51.30;;;14.60;99.90;;;;;;5040570;28;20044;-72
2023/10/09 09:55:18;;;;;;;258.50;52.42;;;14.60;99.90;;;;;;5041183;28;20068;-72
2023/10/09 09:57:51;;;;;;;198.77;49.47;;;14.60;99.90;;;;;;5041962;28;20049;-72
2023/10/09 10:00:42;;;;;;;219.52;50.17;;;14.60;99.90;;;;;;5040797;28;20029;-72
2023/10/09 10:03:36;;;;;;;222.02;51.47;;;14.70;99.90;;;;;;5041599;28;20443;-72
2023/10/09 10:06:09;;;;;;;218.60;49.38;;;14.70;99.90;;;;;;5042008;28;20024;-74
2023/10/09 10:08:39;;;;;;;184.13;47.53;;;14.70;99.90;;;;;;5041516;28;20460;-72
2023/10/09 10:11:05;;;;;;;177.82;47.55;;;14.70;99.90;;;;;;5041417;28;20021;-72
2023/10/09 10:13:43;;;;;;;220.60;51.88;;;14.70;99.90;;;;;;5041672;28;20037;-73
2023/10/09 10:16:19;;;;;;;218.68;53.70;;;14.80;99.90;;;;;;5040976;28;20346;-72
2023/10/09 10:21:41;;;;;;;204.73;48.70;;;14.80;99.90;;;;;;5041176;28;20069;-73
2023/10/09 10:24:29;;;;;;;177.48;45.72;;;14.80;99.90;;;;;;5041687;28;20084;-70
2023/10/09 10:27:09;;;;;;;184.43;45.05;;;14.80;99.90;;;;;;5041705;28;20068;-73
2023/10/09 10:29:38;;;;;;;209.25;48.03;;;14.90;99.90;;;;;;5040735;28;20033;-71
2023/10/09 10:32:08;;;;;;;174.20;46.25;;;14.90;99.90;;;;;;5039200;28;20040;-69
2023/10/09 10:34:46;;;;;;;155.32;43.90;;;14.90;99.90;;;;;;5039779;28;20069;-69
2023/10/09 10:37:13;;;;;;;171.38;44.63;;;14.90;99.90;;;;;;5039076;28;20034;-70
2023/10/09 10:39:51;;;;;;;142.45;42.85;;;14.90;99.90;;;;;;5039741;28;20084;-70
2023/10/09 10:42:35;;;;;;;152.50;43.92;;;15.00;99.90;;;;;;5040933;28;20030;-70
2023/10/09 10:45:02;;;;;;;132.25;39.55;;;15.00;99.90;;;;;;5040726;28;20029;-71
2023/10/09 10:47:35;;;;;;;145.98;41.58;;;15.00;99.90;;;;;;5036445;28;20436;-69
2023/10/09 10:50:34;;;;;;;158.50;41.58;;;15.00;99.90;;;;;;5040642;28;20398;-73
2023/10/09 10:53:19;;;;;;;154.55;42.28;;;15.00;99.90;;;;;;5040903;28;20026;-70
2023/10/09 10:59:11;;;;;;;146.02;39.38;;;15.10;99.90;;;;;;5034456;28;20029;-70
2023/10/09 11:01:53;;;;;;;112.43;33.58;;;15.20;99.90;;;;;;5038629;28;20041;-71
2023/10/09 11:10:09;;;;;;;92.72;31.02;;;15.30;99.90;;;;;;5044069;28;20029;-70
2023/10/09 11:12:38;;;;;;;96.75;31.08;;;15.30;99.90;;;;;;5045044;28;20063;-73
2023/10/09 11:15:57;;;;;;;111.93;31.25;;;15.30;99.90;;;;;;5042839;28;20484;-71
2023/10/09 11:18:05;;;;;;;78.55;25.00;;;15.30;99.90;;;;;;5030751;28;20048;-69
2023/10/09 11:20:35;;;;;;;64.97;23.10;;;15.40;99.90;;;;;;5044818;28;20389;-71
2023/10/09 11:25:50;;;;;;;56.67;21.02;;;15.40;99.90;;;;;;5044623;28;20030;-68
2023/10/09 11:28:29;;;;;;;71.97;22.58;;;15.40;99.90;;;;;;5044497;28;20030;-68
2023/10/09 11:31:05;;;;;;;69.35;23.13;;;15.50;99.90;;;;;;5026867;28;20056;-69
2023/10/09 11:33:43;;;;;;;55.88;20.48;;;15.50;99.90;;;;;;5044395;28;20041;-70
2023/10/09 11:36:09;;;;;;;43.22;17.52;;;15.60;99.90;;;;;;5043287;28;20028;-70
2023/10/09 11:38:38;;;;;;;42.03;17.92;;;15.60;99.90;;;;;;5043766;28;20517;-69
2023/10/09 11:41:24;;;;;;;38.88;17.00;;;15.60;99.90;;;;;;5042529;28;20095;-68
2023/10/09 11:43:51;;;;;;;40.78;16.88;;;15.70;99.90;;;;;;5026012;28;20136;-69
2023/10/09 11:46:37;;;;;;;42.72;15.88;;;15.70;99.90;;;;;;5044208;28;20390;-69
2023/10/09 11:52:10;;;;;;;38.53;13.98;;;15.80;99.90;;;;;;5042905;28;20025;-70
2023/10/09 11:54:31;;;;;;;22.73;11.25;;;15.80;99.90;;;;;;5043668;28;20025;-72
2023/10/09 11:57:00;;;;;;;26.52;11.50;;;15.80;99.90;;;;;;5044011;28;20034;-72
2023/10/09 11:59:27;;;;;;;27.90;12.52;;;15.80;99.90;;;;;;5043715;28;20139;-71
2023/10/09 12:01:54;;;;;;;26.88;10.85;;;15.90;99.90;;;;;;5042914;28;20036;-71
2023/10/09 12:04:20;;;;;;;29.17;10.90;;;15.90;99.90;;;;;;5043792;28;20093;-70
2023/10/09 12:06:46;;;;;;;31.92;11.88;;;15.90;99.90;;;;;;5042605;28;20060;-71
2023/10/09 12:09:16;;;;;;;29.05;10.65;;;16.00;99.90;;;;;;5025429;28;20026;-73
2023/10/09 12:11:42;;;;;;;33.42;11.23;;;16.10;99.90;;;;;;5025624;28;20093;-71
2023/10/09 12:14:07;;;;;;;27.63;10.73;;;16.20;99.90;;;;;;5042504;28;20064;-71
2023/10/09 12:16:33;;;;;;;26.98;11.15;;;16.20;99.90;;;;;;5042828;28;20029;-72
2023/10/09 12:18:59;;;;;;;26.48;10.27;;;16.40;99.90;;;;;;5042650;28;20025;-73
2023/10/09 12:21:27;;;;;;;40.25;11.80;;;16.30;99.90;;;;;;5025069;28;20056;-71
2023/10/09 12:23:57;;;;;;;32.67;11.30;;;16.40;99.90;;;;;;5024929;28;20096;-73
2023/10/09 12:26:22;;;;;;;31.00;10.57;;;16.50;99.90;;;;;;5023222;28;20034;-74
2023/10/09 12:28:49;;;;;;;29.70;10.65;;;16.60;99.90;;;;;;5024775;28;20033;-73
2023/10/09 12:31:19;;;;;;;28.75;10.43;;;16.60;99.90;;;;;;5041867;28;20394;-74
2023/10/09 12:33:47;;;;;;;30.20;10.38;;;16.50;99.90;;;;;;5025186;28;20475;-72
2023/10/09 12:36:22;;;;;;;25.90;10.23;;;16.50;99.90;;;;;;5042613;28;20045;-72
2023/10/09 12:38:54;;;;;;;28.80;10.55;;;16.40;99.90;;;;;;5041063;28;20040;-74
2023/10/09 12:41:25;;;;;;;30.45;10.77;;;16.30;99.90;;;;;;5041297;28;20040;-70
2023/10/09 12:43:52;;;;;;;26.40;8.85;;;16.30;99.90;;;;;;5042754;28;20026;-75
2023/10/09 12:46:22;;;;;;;32.58;9.82;;;16.20;99.90;;;;;;5042909;28;20022;-74
2023/10/09 12:48:54;;;;;;;20.70;7.80;;;16.20;99.90;;;;;;5041796;28;20049;-71
2023/10/09 12:51:20;;;;;;;25.67;8.20;;;16.20;99.90;;;;;;5042557;28;20101;-70
2023/10/09 12:53:48;;;;;;;25.08;7.88;;;16.10;99.90;;;;;;5041166;28;20029;-73
2023/10/09 12:56:18;;;;;;;23.98;7.85;;;16.10;99.90;;;;;;5039145;28;20038;-71
2023/10/09 12:58:52;;;;;;;26.50;7.45;;;16.10;99.90;;;;;;5040282;28;20034;-74
2023/10/09 13:01:19;;;;;;;;;;;16.00;99.90;;;;;;5024408;28;20144;-71
2023/10/09 13:03:49;;;;;;;23.33;6.88;;;16.00;99.90;;;;;;5040114;28;19960;-73
2023/10/09 13:06:15;;;;;;;22.73;6.80;;;16.00;99.90;;;;;;5040240;28;20014;-69
2023/10/09 13:08:42;;;;;;;22.73;6.82;;;15.90;99.90;;;;;;5041992;28;20021;-73
2023/10/09 13:11:11;;;;;;;31.42;7.07;;;15.90;99.90;;;;;;5041431;28;20014;-70
2023/10/09 13:13:42;;;;;;;26.92;7.63;;;15.90;99.90;;;;;;5022969;28;20085;-71
2023/10/09 13:16:23;;;;;;;27.08;7.85;;;15.80;99.90;;;;;;5042943;28;20029;-71
2023/10/09 13:19:05;;;;;;;27.05;7.32;;;15.80;99.90;;;;;;5023837;28;20041;-72
2023/10/09 13:21:37;;;;;;;21.52;7.45;;;15.80;99.90;;;;;;5041888;28;20045;-72
2023/10/09 13:24:02;;;;;;;19.25;6.75;;;15.80;99.90;;;;;;5024662;28;20037;-68
2023/10/09 13:26:33;;;;;;;23.15;7.10;;;15.90;99.90;;;;;;5024789;28;20022;-74
2023/10/09 13:29:01;;;;;;;18.98;6.28;;;15.90;99.90;;;;;;5041453;28;20028;-74
2023/10/09 13:31:27;;;;;;;20.38;6.57;;;15.90;99.90;;;;;;5042096;28;20021;-75
2023/10/09 13:33:58;;;;;;;20.40;6.22;;;15.90;99.90;;;;;;5024662;28;20029;-73
2023/10/09 13:36:31;;;;;;;25.08;6.78;;;15.80;99.90;;;;;;5024058;28;20052;-72
2023/10/09 13:41:57;;;;;;;22.73;6.78;;;15.80;99.90;;;;;;5041659;28;20029;-74
2023/10/09 13:44:27;;;;;;;21.77;6.28;;;15.80;99.90;;;;;;5024180;28;20356;-73
2023/10/09 13:47:05;;;;;;;21.27;6.15;;;15.90;99.90;;;;;;5023832;28;20054;-75
2023/10/09 13:49:31;;;;;;;17.38;6.07;;;15.80;99.90;;;;;;5041359;28;20113;-74
2023/10/09 13:51:58;;;;;;;18.23;6.63;;;15.90;99.90;;;;;;5041847;28;20025;-72
2023/10/09 13:56:59;;;;;;;19.35;5.40;;;15.80;99.90;;;;;;5041839;28;21134;-73
2023/10/09 13:59:25;;;;;;;17.33;5.50;;;15.80;99.90;;;;;;5040564;28;20033;-71
2023/10/09 14:01:54;;;;;;;16.15;4.82;;;15.80;99.90;;;;;;5024030;28;20021;-70
2023/10/09 14:04:23;;;;;;;21.05;4.82;;;15.80;99.90;;;;;;5022564;28;20475;-72
2023/10/09 14:07:05;;;;;;;22.45;5.18;;;15.80;99.90;;;;;;5040946;28;20025;-73
2023/10/09 14:09:31;;;;;;;13.25;4.30;;;15.80;99.90;;;;;;5040361;28;20034;-73
2023/10/09 14:12:08;;;;;;;13.20;4.68;;;15.80;99.90;;;;;;5040123;28;20025;-74
2023/10/09 14:14:46;;;;;;;19.80;4.68;;;15.80;99.90;;;;;;5022579;28;20040;-75
2023/10/09 14:17:25;;;;;;;15.95;4.35;;;15.80;99.90;;;;;;5040681;28;20047;-74
2023/10/09 14:19:52;;;;;;;18.00;4.50;;;15.90;99.90;;;;;;5034090;28;20155;-72
2023/10/09 14:22:26;;;;;;;18.42;4.10;;;15.90;99.90;;;;;;5034458;28;20160;-73
2023/10/09 14:24:56;;;;;;;20.77;4.70;;;15.80;99.90;;;;;;5039623;28;20025;-72
2023/10/09 14:27:27;;;;;;;8.65;3.80;;;15.90;99.90;;;;;;5039861;28;20033;-72
2023/10/09 14:29:59;;;;;;;14.30;4.05;;;15.80;99.90;;;;;;5040408;28;20041;-71
2023/10/09 14:32:43;;;;;;;16.77;4.25;;;15.80;99.90;;;;;;5040916;28;20013;-73
2023/10/09 14:35:12;;;;;;;;;;;15.70;99.90;;;;;;5023908;28;20040;-74
2023/10/09 14:37:41;;;;;;;13.45;3.83;;;15.70;99.90;;;;;;5041163;28;19921;-73
2023/10/09 14:40:12;;;;;;;13.70;3.85;;;15.70;99.90;;;;;;5023128;28;20044;-72
2023/10/09 14:42:43;;;;;;;13.20;3.38;;;15.70;99.90;;;;;;5027555;28;20071;-72
2023/10/09 14:45:15;;;;;;;11.68;3.17;;;15.70;99.90;;;;;;5045264;28;20021;-73
2023/10/09 14:47:41;;;;;;;8.27;3.05;;;15.60;99.90;;;;;;5026617;28;20057;-70
2023/10/09 14:50:09;;;;;;;8.65;2.90;;;15.70;99.90;;;;;;5044882;28;20022;-73
2023/10/09 14:52:38;;;;;;;16.95;3.85;;;15.70;99.90;;;;;;5043135;28;20032;-73
2023/10/09 14:55:06;;;;;;;11.73;3.58;;;15.70;99.90;;;;;;5039400;28;20025;-74
2023/10/09 14:57:33;;;;;;;7.20;3.20;;;15.70;99.90;;;;;;5045018;28;20042;-72
2023/10/09 14:59:59;;;;;;;14.00;3.13;;;15.80;99.90;;;;;;5025759;28;20025;-72
2023/10/09 15:02:25;;;;;;;15.43;3.22;;;15.90;99.90;;;;;;5043427;28;20116;-71
2023/10/09 15:04:52;;;;;;;8.35;2.92;;;15.90;99.90;;;;;;5023518;28;20049;-70
2023/10/09 15:07:18;;;;;;;12.77;3.20;;;15.90;99.90;;;;;;5044591;28;20041;-74
2023/10/09 15:09:44;;;;;;;8.98;3.08;;;15.80;99.90;;;;;;5045270;28;20501;-72
2023/10/09 15:12:11;;;;;;;8.80;2.72;;;15.80;99.90;;;;;;5044932;28;20039;-71